createdAt,value
2023-01-28T00:01:30.163Z,66.20
2023-01-28T00:03:57.611Z,58.55
2023-01-28T00:06:25.298Z,62.92
2023-01-28T00:08:52.871Z,56.70
2023-01-28T00:11:22.623Z,54.13
2023-01-28T00:13:54.128Z,57.42
2023-01-28T00:16:24.550Z,55.92
2023-01-28T00:18:52.001Z,58.88
2023-01-28T00:21:19.605Z,63.40
2023-01-28T00:23:56.785Z,58.30
2023-01-28T00:26:25.326Z,59.75
2023-01-28T00:28:52.742Z,54.75
2023-01-28T00:31:26.202Z,55.75
2023-01-28T00:33:55.999Z,59.28
2023-01-28T00:36:25.015Z,58.67
2023-01-28T00:38:55.099Z,63.83
2023-01-28T00:41:24.628Z,56.40
2023-01-28T00:43:53.006Z,66.28
2023-01-28T00:46:21.612Z,57.92
2023-01-28T00:48:49.402Z,63.83
2023-01-28T00:51:20.141Z,68.30
2023-01-28T00:53:49.843Z,63.95
2023-01-28T00:56:18.360Z,58.67
2023-01-28T00:58:46.409Z,67.65
2023-01-28T01:01:15.372Z,61.15
2023-01-28T01:03:44.494Z,59.22
2023-01-28T01:06:13.885Z,56.60
2023-01-28T01:08:43.098Z,58.45
2023-01-28T01:11:11.775Z,61.33
2023-01-28T01:13:39.371Z,55.30
2023-01-28T01:16:09.663Z,66.43
2023-01-28T01:18:41.815Z,64.32
2023-01-28T01:21:11.945Z,67.40
2023-01-28T01:23:39.662Z,59.97
2023-01-28T01:26:07.891Z,59.20
2023-01-28T01:28:36.317Z,65.68
2023-01-28T01:31:10.335Z,70.68
2023-01-28T01:33:39.935Z,67.32
2023-01-28T01:36:08.143Z,70.05
2023-01-28T01:38:36.877Z,65.55
2023-01-28T01:41:05.417Z,65.43
2023-01-28T01:43:46.863Z,66.10
2023-01-28T01:46:15.882Z,64.40
2023-01-28T01:48:45.116Z,64.15
2023-01-28T01:51:19.767Z,57.45
2023-01-28T01:53:52.439Z,56.55
2023-01-28T01:56:25.026Z,59.85
2023-01-28T01:58:55.774Z,62.72
2023-01-28T02:01:27.835Z,62.03
2023-01-28T02:04:10.635Z,56.85
2023-01-28T02:06:39.797Z,57.83
2023-01-28T02:09:26.129Z,54.30
2023-01-28T02:12:11.337Z,57.17
2023-01-28T02:14:44.200Z,60.70
2023-01-28T02:17:12.123Z,57.80
2023-01-28T02:19:53.637Z,55.72
2023-01-28T02:22:45.483Z,50.53
2023-01-28T02:25:21.961Z,56.58
2023-01-28T02:28:17.318Z,56.45
2023-01-28T02:30:57.399Z,56.03
2023-01-28T02:33:35.376Z,54.72
2023-01-28T02:36:16.455Z,53.85
2023-01-28T02:41:29.675Z,59.38
2023-01-28T02:43:56.846Z,67.43
2023-01-28T02:46:45.624Z,55.42
2023-01-28T02:49:22.329Z,62.15
2023-01-28T02:52:09.995Z,51.22
2023-01-28T02:54:50.157Z,54.40
2023-01-28T02:57:48.548Z,56.28
2023-01-28T03:00:30.378Z,52.67
2023-01-28T03:03:14.058Z,55.13
2023-01-28T03:06:17.202Z,50.78
2023-01-28T03:09:05.127Z,53.65
2023-01-28T03:11:57.147Z,53.08
2023-01-28T03:14:44.416Z,53.17
2023-01-28T03:17:55.245Z,49.95
2023-01-28T03:20:43.937Z,57.53
2023-01-28T03:23:35.450Z,47.45
2023-01-28T03:26:24.685Z,45.50
2023-01-28T03:29:13.310Z,46.08
2023-01-28T03:31:59.756Z,51.17
2023-01-28T03:34:46.772Z,50.50
2023-01-28T03:37:15.185Z,54.88
2023-01-28T03:39:48.412Z,50.47
2023-01-28T03:42:16.557Z,54.40
2023-01-28T03:44:56.080Z,50.42
2023-01-28T03:47:27.770Z,46.40
2023-01-28T03:49:56.727Z,50.00
2023-01-28T03:52:30.418Z,45.05
2023-01-28T03:55:14.579Z,46.95
2023-01-28T03:57:45.011Z,46.88
2023-01-28T04:00:13.951Z,45.20
2023-01-28T04:02:44.322Z,45.78
2023-01-28T04:05:16.511Z,45.63
2023-01-28T04:07:48.436Z,47.45
2023-01-28T04:10:23.070Z,41.70
2023-01-28T04:15:24.079Z,48.50
2023-01-28T04:17:51.663Z,42.53
2023-01-28T04:20:24.441Z,43.10
2023-01-28T04:22:51.881Z,33.20
2023-01-28T04:25:20.852Z,38.00
2023-01-28T04:27:49.014Z,30.98
2023-01-28T04:30:20.448Z,37.15
2023-01-28T04:33:05.964Z,39.90
2023-01-28T04:35:42.634Z,41.83
2023-01-28T04:38:22.705Z,38.95
2023-01-28T04:40:59.915Z,50.50
2023-01-28T04:43:31.123Z,51.33
2023-01-28T04:46:16.968Z,43.10
2023-01-28T04:48:55.796Z,59.78
2023-01-28T04:51:42.116Z,57.67
2023-01-28T04:54:27.520Z,60.00
2023-01-28T04:56:58.122Z,60.92
2023-01-28T04:59:25.620Z,61.00
2023-01-28T05:01:53.101Z,60.38
2023-01-28T05:04:22.019Z,59.78
2023-01-28T05:06:49.231Z,64.78
2023-01-28T05:09:19.929Z,63.53
2023-01-28T05:11:48.147Z,57.25
2023-01-28T05:14:15.927Z,58.17
2023-01-28T05:16:51.082Z,60.25
2023-01-28T05:19:19.495Z,65.22
2023-01-28T05:21:47.257Z,56.78
2023-01-28T05:24:35.053Z,54.72
2023-01-28T05:27:03.813Z,59.35
2023-01-28T05:29:31.288Z,63.25
2023-01-28T05:31:59.600Z,78.93
2023-01-28T05:34:27.158Z,63.50
2023-01-28T05:36:55.949Z,77.85
2023-01-28T05:39:35.668Z,75.80
2023-01-28T05:42:02.932Z,79.80
2023-01-28T05:44:32.736Z,77.68
2023-01-28T05:47:12.510Z,75.90
2023-01-28T05:49:59.833Z,79.25
2023-01-28T05:53:08.767Z,79.13
2023-01-28T05:55:39.277Z,92.47
2023-01-28T05:58:06.869Z,70.53
2023-01-28T06:00:35.201Z,85.82
2023-01-28T06:03:04.388Z,72.97
2023-01-28T06:05:32.670Z,84.38
2023-01-28T06:08:01.549Z,76.32
2023-01-28T06:10:30.016Z,90.70
2023-01-28T06:12:57.346Z,83.28
2023-01-28T06:15:43.292Z,77.10
2023-01-28T06:18:37.426Z,72.43
2023-01-28T06:21:05.185Z,79.45
2023-01-28T06:23:32.335Z,61.13
2023-01-28T06:25:59.978Z,70.97
2023-01-28T06:28:27.244Z,76.55
2023-01-28T06:30:55.113Z,75.25
2023-01-28T06:33:22.656Z,77.30
2023-01-28T06:35:50.128Z,79.22
2023-01-28T06:38:17.311Z,74.15
2023-01-28T06:40:44.803Z,91.40
2023-01-28T06:43:12.015Z,75.07
2023-01-28T06:45:39.412Z,74.68
2023-01-28T06:48:08.750Z,78.20
2023-01-28T06:50:36.409Z,71.97
2023-01-28T06:53:03.620Z,74.85
2023-01-28T06:55:31.085Z,75.97
2023-01-28T06:57:58.278Z,73.55
2023-01-28T07:00:25.804Z,87.97
2023-01-28T07:02:57.076Z,80.32
2023-01-28T07:05:24.851Z,103.32
2023-01-28T07:07:52.431Z,87.22
2023-01-28T07:10:20.068Z,96.70
2023-01-28T07:12:47.314Z,79.72
2023-01-28T07:15:15.287Z,78.18
2023-01-28T07:17:42.729Z,77.32
2023-01-28T07:20:12.962Z,124.05
2023-01-28T07:22:44.092Z,92.32
2023-01-28T07:25:12.864Z,70.80
2023-01-28T07:27:40.461Z,83.45
2023-01-28T07:30:08.782Z,79.05
2023-01-28T07:32:35.986Z,92.70
2023-01-28T07:35:03.484Z,82.78
2023-01-28T07:37:30.747Z,85.07
2023-01-28T07:39:58.159Z,82.25
2023-01-28T07:42:25.384Z,97.32
2023-01-28T07:44:53.937Z,88.47
2023-01-28T07:47:21.353Z,86.35
2023-01-28T07:49:48.797Z,75.57
2023-01-28T07:52:15.964Z,78.53
2023-01-28T07:54:43.367Z,95.90
2023-01-28T07:57:10.578Z,87.30
2023-01-28T07:59:38.186Z,88.57
2023-01-28T08:02:05.435Z,91.65
2023-01-28T08:04:33.102Z,96.50
2023-01-28T08:07:00.357Z,88.95
2023-01-28T08:09:27.825Z,107.40
2023-01-28T08:11:55.016Z,103.05
2023-01-28T08:14:22.431Z,79.78
2023-01-28T08:16:49.561Z,93.68
2023-01-28T08:19:18.419Z,99.88
2023-01-28T08:21:48.040Z,90.32
2023-01-28T08:24:15.755Z,88.75
2023-01-28T08:26:43.430Z,70.35
2023-01-28T08:29:10.858Z,92.93
2023-01-28T08:31:38.100Z,66.97
2023-01-28T08:34:05.712Z,71.13
2023-01-28T08:36:32.944Z,66.55
2023-01-28T08:39:00.419Z,60.55
2023-01-28T08:41:27.596Z,63.90
2023-01-28T08:43:55.025Z,60.45
2023-01-28T08:46:22.468Z,50.63
2023-01-28T08:48:51.404Z,46.20
2023-01-28T08:51:18.536Z,53.13
2023-01-28T08:53:45.956Z,57.15
2023-01-28T08:56:14.369Z,59.42
2023-01-28T08:58:41.906Z,56.33
2023-01-28T09:01:09.143Z,55.13
2023-01-28T09:03:36.594Z,62.17
2023-01-28T09:06:04.645Z,55.15
2023-01-28T09:08:32.515Z,50.97
2023-01-28T09:11:00.352Z,48.75
2023-01-28T09:13:28.778Z,51.92
2023-01-28T09:15:56.664Z,58.45
2023-01-28T09:18:24.297Z,50.17
2023-01-28T09:20:51.540Z,50.38
2023-01-28T09:23:18.947Z,49.55
2023-01-28T09:25:46.165Z,47.20
2023-01-28T09:28:13.666Z,50.97
2023-01-28T09:30:41.022Z,58.08
2023-01-28T09:33:08.662Z,49.38
2023-01-28T09:35:36.938Z,45.67
2023-01-28T09:38:04.816Z,45.95
2023-01-28T09:40:40.791Z,51.08
2023-01-28T09:43:35.681Z,41.70
2023-01-28T09:46:07.786Z,42.05
2023-01-28T09:51:17.449Z,46.35
2023-01-28T09:53:52.308Z,39.22
2023-01-28T09:56:30.164Z,45.85
2023-01-28T09:59:06.305Z,41.08
2023-01-28T10:01:44.881Z,42.58
2023-01-28T10:04:34.329Z,41.75
2023-01-28T10:07:27.782Z,38.65
2023-01-28T10:10:11.719Z,43.70
2023-01-28T10:12:58.790Z,74.22
2023-01-28T10:15:29.207Z,62.75
2023-01-28T10:18:17.126Z,60.47
2023-01-28T10:20:51.789Z,78.18
2023-01-28T10:23:36.611Z,51.75
2023-01-28T10:26:11.404Z,41.75
2023-01-28T10:28:39.942Z,42.67
2023-01-28T10:31:17.003Z,40.15
2023-01-28T10:33:44.268Z,39.88
2023-01-28T10:36:11.859Z,35.08
2023-01-28T10:38:39.654Z,59.22
2023-01-28T10:41:08.909Z,51.60
2023-01-28T10:43:40.961Z,56.35
2023-01-28T10:46:23.481Z,35.38
2023-01-28T10:48:59.914Z,29.35
2023-01-28T10:51:38.415Z,35.70
2023-01-28T10:54:22.944Z,42.25
2023-01-28T10:57:04.164Z,36.13
2023-01-28T10:59:41.574Z,47.10
2023-01-28T11:02:32.762Z,41.47
2023-01-28T11:05:22.174Z,40.53
2023-01-28T11:07:50.233Z,40.92
2023-01-28T11:10:37.944Z,38.95
2023-01-28T11:13:07.377Z,50.42
2023-01-28T11:15:34.680Z,48.13
2023-01-28T11:18:10.716Z,36.83
2023-01-28T11:20:42.548Z,34.88
2023-01-28T11:23:33.281Z,37.60
2023-01-28T11:26:06.647Z,55.58
2023-01-28T11:28:39.553Z,40.63
2023-01-28T11:33:51.503Z,94.68
2023-01-28T11:39:10.654Z,64.35
2023-01-28T11:41:41.867Z,49.55
2023-01-28T11:44:18.981Z,61.50
2023-01-28T11:47:10.667Z,52.53
2023-01-28T11:49:57.029Z,71.65
2023-01-28T11:53:04.915Z,105.03
2023-01-28T11:55:42.392Z,153.82
2023-01-28T11:58:19.391Z,63.00
2023-01-28T12:01:01.737Z,54.10
2023-01-28T12:03:55.936Z,56.83
2023-01-28T12:06:50.107Z,43.42
2023-01-28T12:09:17.243Z,56.25
2023-01-28T12:12:09.208Z,46.17
2023-01-28T12:15:03.917Z,58.33
2023-01-28T12:18:17.638Z,58.95
2023-01-28T12:20:58.806Z,59.40
2023-01-28T12:23:55.174Z,50.10
2023-01-28T12:26:50.582Z,54.60
2023-01-28T12:29:32.764Z,49.30
2023-01-28T12:32:08.341Z,68.22
2023-01-28T12:35:04.946Z,62.60
2023-01-28T12:38:01.789Z,69.35
2023-01-28T12:40:41.374Z,124.25
2023-01-28T12:43:51.175Z,159.57
2023-01-28T12:46:46.134Z,58.97
2023-01-28T12:49:30.479Z,51.92
2023-01-28T12:52:13.778Z,50.92
2023-01-28T12:55:05.437Z,53.17
2023-01-28T12:57:35.237Z,39.80
2023-01-28T13:00:21.032Z,44.90
2023-01-28T13:03:11.908Z,48.13
2023-01-28T13:05:44.732Z,48.83
2023-01-28T13:08:28.259Z,44.85
2023-01-28T13:10:58.314Z,46.20
2023-01-28T13:13:36.329Z,47.42
2023-01-28T13:16:06.627Z,44.53
2023-01-28T13:18:40.108Z,59.72
2023-01-28T13:21:13.593Z,52.42
2023-01-28T13:23:45.312Z,54.70
2023-01-28T13:26:18.633Z,44.65
2023-01-28T13:28:48.677Z,48.45
2023-01-28T13:31:18.837Z,48.30
2023-01-28T13:34:02.328Z,43.53
2023-01-28T13:36:31.799Z,47.83
2023-01-28T13:39:08.513Z,42.17
2023-01-28T13:41:44.279Z,44.67
2023-01-28T13:44:21.953Z,49.45
2023-01-28T13:46:49.392Z,55.67
2023-01-28T13:49:23.152Z,52.17
2023-01-28T13:52:16.815Z,60.70
2023-01-28T13:55:03.946Z,47.95
2023-01-28T13:57:45.762Z,73.93
2023-01-28T14:00:18.611Z,61.75
2023-01-28T14:03:17.823Z,76.20
2023-01-28T14:06:11.757Z,44.50
2023-01-28T14:09:06.651Z,99.53
2023-01-28T14:11:53.121Z,61.60
2023-01-28T14:14:28.307Z,70.97
2023-01-28T14:17:06.215Z,45.53
2023-01-28T14:19:36.435Z,67.80
2023-01-28T14:22:10.752Z,61.10
2023-01-28T14:24:39.669Z,161.07
2023-01-28T14:27:25.458Z,34.63
2023-01-28T14:30:01.526Z,105.07
2023-01-28T14:32:31.541Z,84.90
2023-01-28T14:35:04.870Z,63.25
2023-01-28T14:37:33.326Z,56.58
2023-01-28T14:40:04.474Z,54.97
2023-01-28T14:42:40.161Z,119.82
2023-01-28T14:45:28.494Z,27.38
2023-01-28T14:48:29.683Z,39.15
2023-01-28T14:51:21.239Z,56.60
2023-01-28T14:54:12.645Z,42.03
2023-01-28T14:56:51.750Z,58.08
2023-01-28T14:59:29.289Z,44.67
2023-01-28T15:01:58.469Z,20.42
2023-01-28T15:04:29.439Z,14.38
2023-01-28T15:07:01.018Z,17.75
2023-01-28T15:09:28.511Z,13.63
2023-01-28T15:11:58.583Z,17.50
2023-01-28T15:14:31.786Z,18.60
2023-01-28T15:17:00.497Z,26.88
2023-01-28T15:19:34.697Z,49.97
2023-01-28T15:22:06.810Z,26.00
2023-01-28T15:24:35.576Z,28.23
2023-01-28T15:27:03.741Z,62.65
2023-01-28T15:29:32.287Z,50.58
2023-01-28T15:31:59.910Z,50.03
2023-01-28T15:34:30.503Z,46.03
2023-01-28T15:36:59.567Z,47.60
2023-01-28T15:39:28.707Z,39.55
2023-01-28T15:41:59.122Z,51.20
2023-01-28T15:44:31.241Z,56.90
2023-01-28T15:47:00.101Z,61.25
2023-01-28T15:49:32.704Z,65.38
2023-01-28T15:52:00.154Z,51.90
2023-01-28T15:54:30.586Z,46.08
2023-01-28T15:57:08.124Z,47.28
2023-01-28T15:59:35.531Z,45.25
2023-01-28T16:02:18.975Z,57.53
2023-01-28T16:05:01.023Z,52.83
2023-01-28T16:07:31.174Z,60.93
2023-01-28T16:10:01.714Z,67.50
2023-01-28T16:12:29.746Z,67.43
2023-01-28T16:15:00.850Z,56.92
2023-01-28T16:17:31.753Z,53.47
2023-01-28T16:20:03.655Z,50.35
2023-01-28T16:22:39.616Z,60.35
2023-01-28T16:25:22.156Z,57.90
2023-01-28T16:27:49.666Z,54.47
2023-01-28T16:30:18.031Z,52.60
2023-01-28T16:32:46.089Z,58.22
2023-01-28T16:35:19.396Z,69.95
2023-01-28T16:37:48.243Z,119.90
2023-01-28T16:40:19.776Z,79.75
2023-01-28T16:42:48.679Z,65.68
2023-01-28T16:45:19.285Z,57.70
2023-01-28T16:47:47.103Z,51.60
2023-01-28T16:50:15.787Z,53.95
2023-01-28T16:52:45.280Z,50.70
2023-01-28T16:55:15.182Z,53.38
2023-01-28T16:57:44.293Z,68.55
2023-01-28T17:00:26.337Z,57.72
2023-01-28T17:02:54.927Z,56.63
2023-01-28T17:05:23.744Z,57.13
2023-01-28T17:07:53.387Z,53.85
2023-01-28T17:10:21.034Z,53.30
2023-01-28T17:12:49.231Z,55.33
2023-01-28T17:15:17.830Z,60.88
2023-01-28T17:17:48.323Z,57.13
2023-01-28T17:20:15.818Z,47.85
2023-01-28T17:22:43.195Z,52.83
2023-01-28T17:25:11.324Z,50.60
2023-01-28T17:27:38.699Z,57.60
2023-01-28T17:30:07.067Z,54.88
2023-01-28T17:32:34.421Z,52.70
2023-01-28T17:35:02.104Z,52.85
2023-01-28T17:37:29.497Z,47.30
2023-01-28T17:39:57.077Z,51.92
2023-01-28T17:42:24.404Z,54.80
2023-01-28T17:44:53.153Z,58.25
2023-01-28T17:47:26.410Z,54.40
2023-01-28T17:49:57.839Z,78.50
2023-01-28T17:52:25.215Z,60.58
2023-01-28T17:54:52.805Z,71.05
2023-01-28T17:57:20.501Z,74.50
2023-01-28T17:59:48.108Z,88.45
2023-01-28T18:02:15.700Z,66.10
2023-01-28T18:04:43.664Z,64.97
2023-01-28T18:07:11.175Z,63.50
2023-01-28T18:09:44.056Z,51.67
2023-01-28T18:12:13.810Z,61.80
2023-01-28T18:14:41.739Z,66.90
2023-01-28T18:17:09.030Z,67.90
2023-01-28T18:19:36.633Z,68.28
2023-01-28T18:22:04.023Z,91.18
2023-01-28T18:24:31.668Z,60.40
2023-01-28T18:27:00.554Z,60.88
2023-01-28T18:29:29.818Z,60.22
2023-01-28T18:31:58.243Z,61.67
2023-01-28T18:34:28.260Z,52.25
2023-01-28T18:36:57.272Z,57.72
2023-01-28T18:39:27.665Z,51.28
2023-01-28T18:41:55.162Z,69.03
2023-01-28T18:44:24.093Z,64.70
2023-01-28T18:46:52.130Z,54.67
2023-01-28T18:49:20.192Z,48.55
2023-01-28T18:51:47.393Z,54.95
2023-01-28T18:54:15.982Z,57.20
2023-01-28T18:56:43.949Z,101.07
2023-01-28T18:59:14.029Z,68.78
2023-01-28T19:01:42.762Z,45.42
2023-01-28T19:04:11.016Z,51.67
2023-01-28T19:06:38.651Z,51.50
2023-01-28T19:09:07.115Z,50.03
2023-01-28T19:11:35.030Z,50.28
2023-01-28T19:14:02.665Z,42.67
2023-01-28T19:16:30.495Z,41.28
2023-01-28T19:19:00.978Z,43.30
2023-01-28T19:21:30.528Z,67.55
2023-01-28T19:24:01.148Z,35.30
2023-01-28T19:26:30.378Z,29.95
2023-01-28T19:28:59.111Z,37.08
2023-01-28T19:31:27.212Z,56.72
2023-01-28T19:33:57.292Z,53.15
2023-01-28T19:36:26.152Z,32.45
2023-01-28T19:38:58.885Z,21.55
2023-01-28T19:43:54.209Z,24.42
2023-01-28T19:46:21.517Z,17.92
2023-01-28T19:48:49.091Z,21.52
2023-01-28T19:51:17.417Z,16.45
2023-01-28T19:53:45.611Z,21.50
2023-01-28T19:56:15.151Z,18.48
2023-01-28T19:58:44.018Z,13.73
2023-01-28T20:01:12.342Z,26.17
2023-01-28T20:03:40.777Z,14.63
2023-01-28T20:06:16.401Z,19.10
2023-01-28T20:08:44.802Z,17.85
2023-01-28T20:11:15.036Z,17.67
2023-01-28T20:13:45.257Z,16.75
2023-01-28T20:16:27.319Z,27.48
2023-01-28T20:18:57.231Z,30.20
2023-01-28T20:21:25.238Z,31.45
2023-01-28T20:23:54.755Z,25.42
2023-01-28T20:26:29.581Z,26.10
2023-01-28T20:28:59.683Z,24.88
2023-01-28T20:31:27.081Z,19.40
2023-01-28T20:33:54.910Z,22.02
2023-01-28T20:36:22.137Z,24.00
2023-01-28T20:38:49.821Z,25.30
2023-01-28T20:41:22.879Z,20.65
2023-01-28T20:43:52.350Z,50.60
2023-01-28T20:46:25.334Z,50.15
2023-01-28T20:48:55.094Z,29.27
2023-01-28T20:51:24.988Z,20.48
2023-01-28T20:53:53.641Z,29.38
2023-01-28T20:56:24.295Z,28.02
2023-01-28T20:58:57.264Z,31.02
2023-01-28T21:01:29.248Z,45.42
2023-01-28T21:03:57.157Z,27.27
2023-01-28T21:06:25.544Z,42.22
2023-01-28T21:08:53.574Z,15.20
2023-01-28T21:11:22.145Z,19.77
2023-01-28T21:13:50.283Z,18.83
2023-01-28T21:16:18.578Z,14.68
2023-01-28T21:18:46.509Z,15.48
2023-01-28T21:21:26.168Z,13.90
2023-01-28T21:23:56.836Z,23.13
2023-01-28T21:26:24.550Z,16.00
2023-01-28T21:28:52.539Z,16.05
2023-01-28T21:31:22.566Z,19.73
2023-01-28T21:33:51.555Z,16.55
2023-01-28T21:36:19.850Z,11.38
2023-01-28T21:38:58.037Z,14.57
2023-01-28T21:41:25.771Z,12.18
2023-01-28T21:43:54.444Z,16.60
2023-01-28T21:46:23.025Z,14.38
2023-01-28T21:48:55.122Z,14.32
2023-01-28T21:51:39.590Z,11.85
2023-01-28T21:54:11.652Z,20.48
2023-01-28T21:56:39.160Z,9.73
2023-01-28T21:59:25.269Z,12.10
2023-01-28T22:01:52.585Z,9.13
2023-01-28T22:04:20.487Z,14.90
2023-01-28T22:06:47.777Z,17.35
2023-01-28T22:09:15.483Z,11.98
2023-01-28T22:11:45.100Z,9.93
2023-01-28T22:14:13.070Z,13.35
2023-01-28T22:16:40.443Z,10.35
2023-01-28T22:19:08.342Z,11.07
2023-01-28T22:21:41.314Z,13.02
2023-01-28T22:24:11.433Z,11.02
2023-01-28T22:26:39.950Z,12.85
2023-01-28T22:29:07.627Z,11.80
2023-01-28T22:31:35.019Z,8.15
2023-01-28T22:34:02.680Z,10.82
2023-01-28T22:36:32.437Z,10.43
2023-01-28T22:39:03.744Z,13.43
2023-01-28T22:41:31.212Z,14.55
2023-01-28T22:44:01.627Z,23.92
2023-01-28T22:46:29.557Z,12.25
2023-01-28T22:48:57.471Z,15.88
2023-01-28T22:51:31.454Z,10.85
2023-01-28T22:53:59.116Z,10.15
2023-01-28T22:56:27.964Z,13.57
2023-01-28T22:58:57.331Z,16.85
2023-01-28T23:01:25.376Z,13.68
2023-01-28T23:03:53.635Z,15.63
2023-01-28T23:06:22.855Z,19.33
2023-01-28T23:08:51.732Z,22.17
2023-01-28T23:11:25.571Z,22.80
2023-01-28T23:14:17.294Z,18.63
2023-01-28T23:17:03.890Z,18.40
2023-01-28T23:19:49.852Z,19.23
2023-01-28T23:22:45.588Z,15.55
2023-01-28T23:25:13.923Z,21.58
2023-01-28T23:27:41.765Z,15.80
2023-01-28T23:30:11.364Z,16.02
2023-01-28T23:32:47.036Z,15.40
2023-01-28T23:35:15.151Z,19.45
2023-01-28T23:37:42.339Z,13.27
2023-01-28T23:40:10.515Z,17.30
2023-01-28T23:42:37.708Z,20.38
2023-01-28T23:45:06.331Z,16.58
2023-01-28T23:47:33.728Z,19.88
2023-01-28T23:50:01.280Z,13.63
2023-01-28T23:52:28.621Z,14.75
2023-01-28T23:54:56.299Z,16.40
2023-01-28T23:57:23.608Z,11.95
2023-01-28T23:59:51.626Z,15.40
